Time;durP1;ratioP1;P1;durP2;ratioP2;P2;SDS_P1;SDS_P2;PMS_P1;PMS_P2;Temp;Humidity;BMP_temperature;BMP_pressure;BME280_temperature;BME280_humidity;BME280_pressure;Samples;Min_cycle;Max_cycle;Signal;HPM_P1;HPM_P2
2020/12/15 00:01:19;;;;;;;12.75;8.52;;;5.00;99.90;;;;;;5027585;28;20053;-82
2020/12/15 00:03:50;;;;;;;12.95;8.23;;;5.00;99.90;;;;;;5015753;28;20041;-83
2020/12/15 00:06:17;;;;;;;14.13;9.35;;;4.90;99.90;;;;;;5029487;28;20102;-83
2020/12/15 00:08:45;;;;;;;14.10;9.55;;;4.90;99.90;;;;;;5033007;28;20104;-83
2020/12/15 00:11:17;;;;;;;12.95;9.23;;;5.00;99.90;;;;;;5028494;28;20045;-83
2020/12/15 00:13:46;;;;;;;12.95;9.00;;;5.00;99.90;;;;;;5035236;28;20044;-83
2020/12/15 00:16:13;;;;;;;14.35;9.07;;;5.00;99.90;;;;;;5032391;28;20082;-83
2020/12/15 00:18:41;;;;;;;17.30;10.68;;;4.90;99.90;;;;;;5034294;28;20021;-84
2020/12/15 00:21:11;;;;;;;14.32;9.55;;;4.90;99.90;;;;;;5035965;28;20030;-84
2020/12/15 00:23:37;;;;;;;12.40;8.98;;;4.90;99.90;;;;;;5034140;28;20040;-83
2020/12/15 00:26:07;;;;;;;13.20;9.27;;;4.90;99.90;;;;;;5028677;28;20026;-82
2020/12/15 00:28:40;;;;;;;12.45;9.20;;;4.90;99.90;;;;;;5035517;28;20409;-82
2020/12/15 00:31:08;;;;;;;14.25;9.30;;;4.90;99.90;;;;;;5034853;28;20029;-83
2020/12/15 00:33:33;;;;;;;12.55;9.07;;;4.90;99.90;;;;;;5033213;28;20030;-84
2020/12/15 00:35:59;;;;;;;12.05;8.73;;;4.90;99.90;;;;;;5037950;28;20095;-83
2020/12/15 00:38:25;;;;;;;12.20;8.68;;;4.90;99.90;;;;;;5032444;28;20116;-82
2020/12/15 00:40:50;;;;;;;13.30;8.85;;;4.90;99.90;;;;;;5032399;28;20044;-82
2020/12/15 00:43:20;;;;;;;12.70;9.30;;;4.90;99.90;;;;;;5036733;28;20291;-82
2020/12/15 00:45:48;;;;;;;12.90;8.63;;;4.90;99.90;;;;;;5036403;28;20160;-83
2020/12/15 00:48:14;;;;;;;14.70;10.00;;;4.90;99.90;;;;;;5034618;28;20029;-83
2020/12/15 00:50:40;;;;;;;15.30;9.25;;;4.90;99.90;;;;;;5031334;28;20470;-83
2020/12/15 00:53:12;;;;;;;11.77;8.50;;;4.90;99.90;;;;;;5030561;28;20080;-83
2020/12/15 00:55:40;;;;;;;12.80;8.80;;;4.80;99.90;;;;;;5036521;28;20125;-83
2020/12/15 00:58:06;;;;;;;12.38;9.32;;;4.80;99.90;;;;;;5037387;28;20029;-82
2020/12/15 01:00:34;;;;;;;12.82;8.48;;;4.80;99.90;;;;;;5031383;28;20600;-83
2020/12/15 01:02:59;;;;;;;11.77;8.15;;;4.80;99.90;;;;;;5036141;28;20446;-84
2020/12/15 01:05:27;;;;;;;11.38;8.05;;;4.80;99.90;;;;;;5034430;28;20048;-82
2020/12/15 01:07:57;;;;;;;11.00;8.00;;;4.80;99.90;;;;;;5031932;28;20083;-82
2020/12/15 01:10:23;;;;;;;12.32;8.82;;;4.90;99.90;;;;;;5036489;28;20061;-82
2020/12/15 01:12:51;;;;;;;15.63;11.18;;;4.80;99.90;;;;;;5033824;28;20058;-82
2020/12/15 01:15:19;;;;;;;15.15;10.82;;;4.80;99.90;;;;;;5031640;28;20029;-82
2020/12/15 01:17:47;;;;;;;14.23;10.45;;;4.80;99.90;;;;;;5033494;28;20045;-82
2020/12/15 01:20:15;;;;;;;15.60;10.07;;;4.80;99.90;;;;;;5035016;28;20463;-83
2020/12/15 01:22:40;;;;;;;14.15;10.02;;;4.80;99.90;;;;;;5032017;28;20030;-82
2020/12/15 01:25:06;;;;;;;14.02;9.60;;;4.80;99.90;;;;;;5033954;28;20048;-82
2020/12/15 01:27:32;;;;;;;14.15;10.52;;;4.80;99.90;;;;;;5018274;28;20044;-82
2020/12/15 01:30:02;;;;;;;15.68;10.32;;;4.80;99.90;;;;;;5017557;28;20447;-82
2020/12/15 01:32:30;;;;;;;26.17;15.63;;;4.90;99.90;;;;;;5022488;28;20411;-82
2020/12/15 01:35:01;;;;;;;20.00;13.77;;;4.90;99.90;;;;;;5007486;28;20152;-82
2020/12/15 01:37:29;;;;;;;18.30;13.18;;;4.90;99.90;;;;;;5017773;28;20148;-82
2020/12/15 01:39:59;;;;;;;20.83;13.07;;;4.90;99.90;;;;;;5016231;28;20045;-83
2020/12/15 01:42:29;;;;;;;16.80;11.75;;;4.90;99.90;;;;;;5017134;28;20029;-83
2020/12/15 01:44:57;;;;;;;17.33;12.45;;;4.90;99.90;;;;;;5016888;28;20034;-82
2020/12/15 01:47:23;;;;;;;19.55;13.35;;;4.90;99.90;;;;;;5016255;28;20103;-82
2020/12/15 01:49:49;;;;;;;20.05;14.00;;;5.00;99.90;;;;;;5016189;28;20653;-82
2020/12/15 01:52:17;;;;;;;18.45;12.70;;;5.00;99.90;;;;;;5002973;28;20697;-82
2020/12/15 01:54:46;;;;;;;17.83;11.85;;;5.00;99.90;;;;;;5032546;28;20600;-82
2020/12/15 01:57:14;;;;;;;19.45;12.30;;;5.10;99.90;;;;;;5016495;28;20083;-82
2020/12/15 01:59:42;;;;;;;15.60;11.18;;;5.10;99.90;;;;;;5016458;28;20041;-81
2020/12/15 02:02:10;;;;;;;18.45;13.00;;;5.10;99.90;;;;;;5015889;28;20064;-81
2020/12/15 02:04:38;;;;;;;20.15;13.57;;;5.10;99.90;;;;;;5016352;28;20045;-81
2020/12/15 02:07:06;;;;;;;20.48;14.38;;;5.10;99.90;;;;;;5015629;28;20094;-82
2020/12/15 02:09:32;;;;;;;18.20;13.27;;;5.10;99.90;;;;;;5017751;28;20044;-81
2020/12/15 02:12:03;;;;;;;19.55;14.65;;;5.20;99.90;;;;;;5009293;28;20647;-81
2020/12/15 02:14:33;;;;;;;20.50;14.48;;;5.20;99.90;;;;;;5021095;28;20041;-81
2020/12/15 02:16:59;;;;;;;22.45;16.02;;;5.30;99.90;;;;;;5027590;28;20029;-81
2020/12/15 02:19:24;;;;;;;21.60;15.07;;;5.30;99.90;;;;;;5009357;28;20029;-81
2020/12/15 02:21:57;;;;;;;20.42;14.48;;;5.40;99.90;;;;;;5015404;28;20826;-81
2020/12/15 02:24:26;;;;;;;19.05;13.48;;;5.40;99.90;;;;;;5017111;28;20047;-81
2020/12/15 02:26:56;;;;;;;20.92;14.63;;;5.40;99.90;;;;;;5015072;28;20079;-81
2020/12/15 02:29:24;;;;;;;22.50;15.23;;;5.50;99.90;;;;;;5015694;28;20136;-81
2020/12/15 02:31:54;;;;;;;22.48;15.98;;;5.50;99.90;;;;;;5016202;28;20053;-81
2020/12/15 02:34:20;;;;;;;19.02;13.77;;;5.50;99.90;;;;;;5021779;28;20045;-81
2020/12/15 02:36:46;;;;;;;24.70;16.33;;;5.60;99.90;;;;;;5014783;28;20037;-81
2020/12/15 02:39:13;;;;;;;23.40;15.32;;;5.60;99.90;;;;;;5015629;28;20096;-81
2020/12/15 02:41:44;;;;;;;21.35;15.05;;;5.60;99.90;;;;;;5014820;28;20030;-81
2020/12/15 02:44:12;;;;;;;20.52;14.73;;;5.60;99.90;;;;;;5016088;28;20036;-82
2020/12/15 02:46:40;;;;;;;18.33;12.90;;;5.60;99.90;;;;;;5014665;28;20045;-81
2020/12/15 02:49:08;;;;;;;19.60;13.57;;;5.60;99.90;;;;;;5015334;28;20033;-82
2020/12/15 02:51:33;;;;;;;17.48;12.70;;;5.70;99.90;;;;;;5013955;28;20034;-81
2020/12/15 02:54:01;;;;;;;18.92;13.00;;;5.70;99.90;;;;;;5015661;28;20470;-81
2020/12/15 02:56:29;;;;;;;20.85;14.43;;;5.70;99.90;;;;;;5014798;28;20068;-82
2020/12/15 02:58:55;;;;;;;20.05;13.60;;;5.80;99.90;;;;;;5016742;28;20029;-82
2020/12/15 03:01:24;;;;;;;18.55;13.48;;;5.80;99.90;;;;;;5034970;28;20025;-81
2020/12/15 03:03:52;;;;;;;19.35;12.57;;;5.90;99.90;;;;;;5012031;28;20619;-80
2020/12/15 03:06:17;;;;;;;19.70;13.35;;;5.90;99.90;;;;;;5016664;28;20038;-81
2020/12/15 03:08:43;;;;;;;18.08;11.93;;;5.90;99.90;;;;;;5013650;28;20032;-81
2020/12/15 03:11:11;;;;;;;17.52;12.75;;;6.00;99.90;;;;;;5013757;28;20455;-82
2020/12/15 03:13:41;;;;;;;19.90;13.25;;;6.00;99.90;;;;;;5015467;28;20040;-81
2020/12/15 03:16:09;;;;;;;17.17;11.80;;;6.00;99.90;;;;;;5014743;28;20403;-82
2020/12/15 03:18:35;;;;;;;18.08;12.57;;;6.00;99.90;;;;;;5014907;28;20026;-81
2020/12/15 03:21:05;;;;;;;19.00;12.80;;;6.10;99.90;;;;;;5014616;28;20364;-81
2020/12/15 03:23:30;;;;;;;17.80;12.40;;;6.10;99.90;;;;;;5015446;28;20049;-82
2020/12/15 03:25:58;;;;;;;16.33;12.07;;;6.10;99.90;;;;;;5025730;28;20149;-82
2020/12/15 03:28:27;;;;;;;19.02;12.10;;;6.20;99.90;;;;;;5015776;28;20021;-82
2020/12/15 03:30:55;;;;;;;17.75;11.60;;;6.20;99.90;;;;;;5014947;28;20510;-82
2020/12/15 03:33:20;;;;;;;17.92;12.57;;;6.20;99.90;;;;;;5015114;28;20034;-81
2020/12/15 03:35:46;;;;;;;18.33;12.55;;;6.20;99.90;;;;;;5014602;28;20079;-81
2020/12/15 03:38:16;;;;;;;19.33;13.20;;;6.30;99.90;;;;;;5013492;28;20033;-82
2020/12/15 03:40:46;;;;;;;15.38;11.07;;;6.30;99.90;;;;;;5014974;28;20045;-82
2020/12/15 03:43:12;;;;;;;21.33;13.73;;;6.30;99.90;;;;;;5030141;28;20451;-82
2020/12/15 03:45:46;;;;;;;16.77;11.55;;;6.30;99.90;;;;;;5015101;28;20093;-82
2020/12/15 03:48:16;;;;;;;18.85;12.07;;;6.30;99.90;;;;;;5022719;28;20115;-81
2020/12/15 03:50:44;;;;;;;17.58;11.93;;;6.30;99.90;;;;;;5029792;28;20026;-82
2020/12/15 03:53:09;;;;;;;16.67;11.60;;;6.30;99.90;;;;;;5016512;28;20038;-82
2020/12/15 03:55:35;;;;;;;17.02;11.35;;;6.40;99.90;;;;;;5013770;28;20091;-81
2020/12/15 03:58:03;;;;;;;19.00;12.32;;;6.40;99.90;;;;;;5014982;28;20056;-82
2020/12/15 04:00:31;;;;;;;16.20;11.18;;;6.40;99.90;;;;;;5014464;28;20485;-82
2020/12/15 04:02:59;;;;;;;16.42;10.80;;;6.40;99.90;;;;;;5014443;28;20029;-82
2020/12/15 04:05:27;;;;;;;16.02;10.65;;;6.40;99.90;;;;;;5014480;28;20029;-82
2020/12/15 04:07:55;;;;;;;16.00;10.30;;;6.50;99.90;;;;;;5014428;28;20044;-82
2020/12/15 04:10:23;;;;;;;17.90;11.73;;;6.50;99.90;;;;;;5046060;28;20144;-82
2020/12/15 04:12:53;;;;;;;16.38;11.15;;;6.50;99.90;;;;;;5014351;28;20037;-83
2020/12/15 04:15:18;;;;;;;17.63;11.82;;;6.50;99.90;;;;;;5019723;28;20070;-83
2020/12/15 04:17:49;;;;;;;17.80;11.70;;;6.60;99.90;;;;;;5014794;28;20041;-82
2020/12/15 04:20:21;;;;;;;16.85;11.88;;;6.50;99.90;;;;;;5014332;28;20044;-83
2020/12/15 04:22:49;;;;;;;17.42;10.70;;;6.60;99.90;;;;;;5015667;28;20080;-83
2020/12/15 04:25:16;;;;;;;19.30;12.90;;;6.50;99.90;;;;;;5014638;28;20040;-83
2020/12/15 04:27:44;;;;;;;17.42;11.57;;;6.50;99.90;;;;;;5012542;28;20053;-83
2020/12/15 04:30:12;;;;;;;17.90;11.48;;;6.60;99.90;;;;;;5013818;28;20034;-82
2020/12/15 04:32:40;;;;;;;20.48;12.25;;;6.60;99.90;;;;;;5015066;28;20040;-83
2020/12/15 04:35:08;;;;;;;17.15;11.20;;;6.60;99.90;;;;;;5013472;28;20052;-83
2020/12/15 04:37:34;;;;;;;16.98;10.82;;;6.60;99.90;;;;;;5014848;28;20120;-82
2020/12/15 04:40:02;;;;;;;16.55;11.45;;;6.60;99.90;;;;;;5010876;28;20622;-83
2020/12/15 04:42:27;;;;;;;18.48;12.10;;;6.60;99.90;;;;;;5015280;28;20044;-83
2020/12/15 04:44:55;;;;;;;19.45;12.23;;;6.60;99.90;;;;;;5011182;28;20034;-82
2020/12/15 04:47:37;;;;;;;18.50;12.07;;;6.60;99.90;;;;;;5013129;28;20034;-82
2020/12/15 04:50:14;;;;;;;15.25;11.00;;;6.60;99.90;;;;;;4997702;28;20038;-83
2020/12/15 04:52:46;;;;;;;18.95;12.63;;;6.60;99.90;;;;;;5014283;28;20679;-82
2020/12/15 04:55:14;;;;;;;19.95;13.25;;;6.60;99.90;;;;;;5016591;28;20058;-82
2020/12/15 04:57:40;;;;;;;19.08;12.55;;;6.60;99.90;;;;;;5028292;28;20033;-82
2020/12/15 05:00:11;;;;;;;24.88;16.27;;;6.60;99.90;;;;;;5016768;28;20581;-82
2020/12/15 05:02:43;;;;;;;19.42;14.20;;;6.60;99.90;;;;;;5016897;28;20033;-83
2020/12/15 05:05:09;;;;;;;18.33;13.35;;;6.60;99.90;;;;;;5016151;28;20030;-83
2020/12/15 05:07:45;;;;;;;24.42;16.08;;;6.60;99.90;;;;;;5018613;28;20073;-82
2020/12/15 05:10:15;;;;;;;25.02;15.82;;;6.60;99.90;;;;;;5017356;28;20033;-82
2020/12/15 05:12:43;;;;;;;24.23;16.15;;;6.60;99.90;;;;;;5006915;28;20045;-82
2020/12/15 05:15:10;;;;;;;24.83;16.45;;;6.60;99.90;;;;;;5017087;28;20175;-83
2020/12/15 05:17:35;;;;;;;24.58;17.05;;;6.60;99.90;;;;;;5015537;28;20033;-82
2020/12/15 05:20:05;;;;;;;22.05;16.20;;;6.50;99.90;;;;;;5017974;28;20571;-82
2020/12/15 05:22:40;;;;;;;21.67;15.05;;;6.50;99.90;;;;;;5015797;28;20026;-82
2020/12/15 05:25:06;;;;;;;23.15;16.48;;;6.50;99.90;;;;;;5016925;28;20054;-82
2020/12/15 05:27:39;;;;;;;20.05;14.98;;;6.50;99.90;;;;;;5017926;28;20159;-82
2020/12/15 05:30:11;;;;;;;19.05;14.32;;;6.50;99.90;;;;;;5015805;28;20029;-82
2020/12/15 05:32:46;;;;;;;15.38;12.00;;;6.50;99.90;;;;;;5015877;28;20580;-82
2020/12/15 05:35:12;;;;;;;21.88;16.23;;;6.40;99.90;;;;;;5017257;28;20034;-81
2020/12/15 05:37:43;;;;;;;19.92;13.95;;;6.40;99.90;;;;;;5016085;28;20072;-81
2020/12/15 05:40:11;;;;;;;19.27;14.18;;;6.40;99.90;;;;;;5015644;28;20092;-82
2020/12/15 05:42:42;;;;;;;19.48;14.02;;;6.40;99.90;;;;;;5015900;28;20138;-82
2020/12/15 05:45:07;;;;;;;18.27;13.93;;;6.40;99.90;;;;;;5016397;28;20033;-82
2020/12/15 05:47:35;;;;;;;22.20;15.55;;;6.50;99.90;;;;;;5014649;28;20037;-82
2020/12/15 05:50:01;;;;;;;16.85;13.18;;;6.50;99.90;;;;;;5016100;28;20039;-82
2020/12/15 05:52:31;;;;;;;16.38;11.88;;;6.50;99.90;;;;;;5014864;28;20026;-82
2020/12/15 05:55:07;;;;;;;18.90;13.63;;;6.50;99.90;;;;;;5015566;28;20116;-83
2020/12/15 05:57:35;;;;;;;18.75;12.63;;;6.50;99.90;;;;;;5027218;28;20045;-83
2020/12/15 06:00:14;;;;;;;17.13;12.65;;;6.50;99.90;;;;;;5012729;28;20391;-83
2020/12/15 06:02:40;;;;;;;16.45;11.95;;;6.50;99.90;;;;;;5035057;28;20017;-82
2020/12/15 06:05:08;;;;;;;18.33;12.23;;;6.50;99.90;;;;;;5028187;28;20451;-82
2020/12/15 06:07:41;;;;;;;14.90;11.40;;;6.50;99.90;;;;;;5026238;28;20378;-83
2020/12/15 06:10:07;;;;;;;18.77;13.07;;;6.60;99.90;;;;;;5015120;28;20056;-82
2020/12/15 06:12:33;;;;;;;17.17;11.82;;;6.60;99.90;;;;;;5017391;28;20468;-83
2020/12/15 06:15:03;;;;;;;15.50;11.55;;;6.60;99.90;;;;;;5014210;28;20373;-83
2020/12/15 06:17:28;;;;;;;15.45;11.68;;;6.60;99.90;;;;;;5027091;28;20033;-82
2020/12/15 06:19:58;;;;;;;19.27;12.95;;;6.60;99.90;;;;;;5015394;28;20025;-82
2020/12/15 06:22:24;;;;;;;17.65;13.20;;;6.70;99.90;;;;;;5014306;28;20021;-82
2020/12/15 06:24:58;;;;;;;15.38;12.07;;;6.60;99.90;;;;;;5006363;28;20025;-82
2020/12/15 06:27:36;;;;;;;15.35;11.52;;;6.60;99.90;;;;;;5005885;28;20033;-82
2020/12/15 06:30:06;;;;;;;14.95;11.45;;;6.70;99.90;;;;;;5030676;28;20045;-82
2020/12/15 06:32:31;;;;;;;19.30;13.55;;;6.60;99.90;;;;;;5016904;28;20025;-82
2020/12/15 06:35:11;;;;;;;16.27;12.35;;;6.60;99.90;;;;;;5016533;28;20371;-82
2020/12/15 06:37:41;;;;;;;16.13;11.80;;;6.60;99.90;;;;;;5017131;28;20526;-82
2020/12/15 06:40:10;;;;;;;18.27;13.18;;;6.60;99.90;;;;;;5015221;28;20108;-82
2020/12/15 06:42:46;;;;;;;20.83;14.40;;;6.60;99.90;;;;;;5015932;28;20032;-82
2020/12/15 06:45:16;;;;;;;15.98;12.38;;;6.60;99.90;;;;;;5039886;28;20025;-82
2020/12/15 06:47:42;;;;;;;17.77;12.88;;;6.60;99.90;;;;;;5015643;28;20036;-82
2020/12/15 06:50:09;;;;;;;21.75;14.60;;;6.60;99.90;;;;;;5003871;28;20030;-82
2020/12/15 06:52:39;;;;;;;20.92;15.00;;;6.60;99.90;;;;;;5013410;28;20638;-83
2020/12/15 06:55:07;;;;;;;24.75;16.27;;;6.50;99.90;;;;;;5031588;28;20626;-82
2020/12/15 06:57:37;;;;;;;17.42;12.65;;;6.50;99.90;;;;;;5016036;28;20458;-82
2020/12/15 07:00:07;;;;;;;22.27;15.27;;;6.50;99.90;;;;;;5014443;28;20067;-82
2020/12/15 07:02:40;;;;;;;19.52;13.65;;;6.50;99.90;;;;;;5014843;28;20065;-82
2020/12/15 07:05:24;;;;;;;17.88;12.85;;;6.50;99.90;;;;;;5015381;28;20036;-82
2020/12/15 07:07:55;;;;;;;17.70;13.13;;;6.60;99.90;;;;;;5013083;28;20053;-83
2020/12/15 07:10:25;;;;;;;21.25;14.63;;;6.50;99.90;;;;;;5013761;28;21974;-82
2020/12/15 07:12:59;;;;;;;22.20;14.32;;;6.50;99.90;;;;;;5005815;28;20451;-81
2020/12/15 07:15:25;;;;;;;19.08;14.00;;;6.50;99.90;;;;;;5014335;28;20028;-82
2020/12/15 07:17:53;;;;;;;17.05;12.63;;;6.50;99.90;;;;;;5014055;28;20026;-81
2020/12/15 07:20:19;;;;;;;17.98;13.13;;;6.50;99.90;;;;;;5018368;28;20044;-82
2020/12/15 07:22:45;;;;;;;20.05;14.25;;;6.50;99.90;;;;;;5016100;28;20594;-81
2020/12/15 07:25:14;;;;;;;19.40;14.20;;;6.50;99.90;;;;;;5029417;28;20053;-81
2020/12/15 07:27:40;;;;;;;16.13;12.05;;;6.50;99.90;;;;;;5029096;28;20037;-81
2020/12/15 07:30:09;;;;;;;16.27;11.65;;;6.60;99.90;;;;;;5024658;28;20055;-81
2020/12/15 07:32:36;;;;;;;15.43;11.70;;;6.60;99.90;;;;;;5026408;28;20029;-82
2020/12/15 07:35:14;;;;;;;18.38;12.35;;;6.60;99.90;;;;;;5024570;28;20041;-82
2020/12/15 07:37:45;;;;;;;16.38;12.10;;;6.60;99.90;;;;;;5012490;28;20065;-81
2020/12/15 07:40:12;;;;;;;15.27;11.98;;;6.60;99.90;;;;;;5025613;28;20763;-82
2020/12/15 07:42:42;;;;;;;17.08;12.73;;;6.60;99.90;;;;;;5029134;28;20030;-80
2020/12/15 07:45:10;;;;;;;18.63;13.05;;;6.60;99.90;;;;;;5034554;28;20037;-81
2020/12/15 07:47:40;;;;;;;17.75;12.40;;;6.70;99.90;;;;;;5025860;28;20017;-80
2020/12/15 07:50:06;;;;;;;15.57;11.75;;;6.70;99.90;;;;;;5010883;28;20025;-79
2020/12/15 07:52:34;;;;;;;17.17;11.25;;;6.70;99.90;;;;;;5017861;28;20040;-82
2020/12/15 07:55:17;;;;;;;15.07;11.32;;;6.70;99.90;;;;;;5029377;28;20048;-82
2020/12/15 07:57:48;;;;;;;16.38;11.52;;;6.70;99.90;;;;;;5031693;28;20091;-80
2020/12/15 08:00:21;;;;;;;16.25;11.40;;;6.70;99.90;;;;;;5031781;28;20041;-82
2020/12/15 08:02:46;;;;;;;19.83;13.48;;;6.70;99.90;;;;;;5028423;28;20021;-81
2020/12/15 08:05:18;;;;;;;16.10;11.82;;;6.70;99.90;;;;;;5016507;28;20033;-81
2020/12/15 08:07:50;;;;;;;17.25;12.60;;;6.70;99.90;;;;;;5031708;28;20033;-82
2020/12/15 08:10:22;;;;;;;15.30;11.63;;;6.70;99.90;;;;;;5027298;28;20121;-82
2020/12/15 08:12:53;;;;;;;19.27;13.15;;;6.70;99.90;;;;;;5027263;28;20033;-81
2020/12/15 08:15:21;;;;;;;20.33;13.63;;;6.70;99.90;;;;;;5032872;28;20030;-81
2020/12/15 08:17:48;;;;;;;24.25;16.58;;;6.80;99.90;;;;;;5026010;28;20447;-82
2020/12/15 08:20:18;;;;;;;20.13;14.10;;;6.80;99.90;;;;;;5028475;28;20481;-81
2020/12/15 08:22:45;;;;;;;22.35;14.68;;;6.80;99.90;;;;;;5028746;28;20049;-81
2020/12/15 08:25:14;;;;;;;23.42;16.15;;;6.80;99.90;;;;;;5030095;28;20021;-81
2020/12/15 08:27:42;;;;;;;20.20;14.50;;;6.80;99.90;;;;;;5032867;28;20145;-81
2020/12/15 08:30:20;;;;;;;33.97;21.40;;;6.80;99.90;;;;;;5025748;28;20503;-81
2020/12/15 08:32:55;;;;;;;25.33;17.27;;;6.80;99.90;;;;;;5034100;28;20063;-81
2020/12/15 08:35:22;;;;;;;28.17;18.45;;;6.80;99.90;;;;;;5031654;28;20108;-81
2020/12/15 08:38:02;;;;;;;43.60;27.83;;;6.80;99.90;;;;;;5033642;28;20438;-81
2020/12/15 08:40:30;;;;;;;35.03;22.38;;;6.90;99.90;;;;;;5031123;28;20042;-80
2020/12/15 08:43:05;;;;;;;28.83;19.85;;;6.90;99.90;;;;;;5042695;28;20075;-81
2020/12/15 08:45:34;;;;;;;35.38;22.50;;;6.90;99.90;;;;;;5030162;28;20050;-81
2020/12/15 08:48:00;;;;;;;38.10;24.23;;;6.90;99.90;;;;;;5038444;28;20021;-81
2020/12/15 08:50:28;;;;;;;34.80;22.63;;;7.00;99.90;;;;;;5032379;28;20036;-81
2020/12/15 08:53:15;;;;;;;35.78;23.45;;;7.00;99.90;;;;;;5016490;28;20036;-81
2020/12/15 08:55:41;;;;;;;34.90;22.45;;;7.00;99.90;;;;;;5035765;28;20025;-81
2020/12/15 08:58:10;;;;;;;40.80;24.83;;;7.00;99.90;;;;;;5033872;28;20121;-81
2020/12/15 09:00:39;;;;;;;35.03;21.92;;;7.00;99.90;;;;;;5032818;28;20043;-81
2020/12/15 09:03:09;;;;;;;36.03;21.83;;;7.00;99.90;;;;;;5030899;28;20026;-81
2020/12/15 09:05:49;;;;;;;33.55;22.23;;;7.10;99.90;;;;;;5033243;28;20136;-81
2020/12/15 09:08:20;;;;;;;34.38;21.67;;;7.10;99.90;;;;;;5031785;28;21774;-81
2020/12/15 09:10:47;;;;;;;30.48;20.70;;;7.10;99.90;;;;;;5033766;28;20040;-81
2020/12/15 09:13:13;;;;;;;33.08;23.00;;;7.10;99.90;;;;;;5019888;28;20033;-82
2020/12/15 09:15:52;;;;;;;35.90;23.20;;;7.20;99.90;;;;;;5036574;28;20214;-81
2020/12/15 09:18:33;;;;;;;27.88;18.17;;;7.20;99.90;;;;;;5049610;28;20037;-82
2020/12/15 09:21:18;;;;;;;30.23;19.85;;;7.20;99.90;;;;;;5034045;28;20037;-82
2020/12/15 09:23:53;;;;;;;36.13;22.25;;;7.30;99.90;;;;;;5032161;28;20021;-81
2020/12/15 09:26:20;;;;;;;33.67;22.00;;;7.30;99.90;;;;;;5050598;28;20170;-81
2020/12/15 09:28:49;;;;;;;28.58;19.92;;;7.30;99.90;;;;;;5027665;28;20036;-81
2020/12/15 09:31:16;;;;;;;29.23;19.67;;;7.30;99.90;;;;;;5037640;28;20032;-81
2020/12/15 09:33:42;;;;;;;33.80;21.38;;;7.30;99.90;;;;;;5030154;28;20187;-81
2020/12/15 09:36:11;;;;;;;33.63;21.95;;;7.40;99.90;;;;;;5031844;28;20028;-81
2020/12/15 09:38:37;;;;;;;28.30;18.80;;;7.40;99.90;;;;;;5030347;28;20030;-81
2020/12/15 09:41:03;;;;;;;35.17;22.30;;;7.40;99.90;;;;;;5031152;28;20053;-81
2020/12/15 09:43:29;;;;;;;30.65;19.55;;;7.40;99.90;;;;;;5032288;28;20029;-82
2020/12/15 09:46:00;;;;;;;31.13;19.48;;;7.40;99.90;;;;;;5029221;28;20162;-81
2020/12/15 09:48:26;;;;;;;31.57;20.13;;;7.40;99.90;;;;;;5032790;28;20354;-81
2020/12/15 09:50:58;;;;;;;49.35;26.45;;;7.40;99.90;;;;;;5030300;28;20034;-81
2020/12/15 09:53:25;;;;;;;34.70;20.92;;;7.40;99.90;;;;;;5030271;28;20463;-81
2020/12/15 09:55:51;;;;;;;39.10;23.77;;;7.30;99.90;;;;;;5028437;28;20021;-82
2020/12/15 09:58:20;;;;;;;36.65;22.88;;;7.40;99.90;;;;;;5037093;28;20035;-81
2020/12/15 10:00:46;;;;;;;31.95;21.08;;;7.40;99.90;;;;;;5032663;28;20512;-81
2020/12/15 10:03:14;;;;;;;33.72;20.10;;;7.40;99.90;;;;;;5028709;28;20060;-81
2020/12/15 10:05:41;;;;;;;32.20;20.92;;;7.50;99.90;;;;;;5032063;28;20109;-81
2020/12/15 10:08:10;;;;;;;37.38;23.55;;;7.50;99.90;;;;;;5028642;28;20087;-81
2020/12/15 10:10:36;;;;;;;29.23;19.88;;;7.50;99.90;;;;;;5032314;28;20091;-81
2020/12/15 10:13:02;;;;;;;34.35;21.70;;;7.50;99.90;;;;;;5028912;28;20030;-82
2020/12/15 10:15:29;;;;;;;35.65;22.30;;;7.60;99.90;;;;;;5034503;28;20040;-82
2020/12/15 10:17:55;;;;;;;32.20;22.60;;;7.50;99.90;;;;;;5030167;28;20110;-82
2020/12/15 10:20:23;;;;;;;34.38;22.48;;;7.50;99.90;;;;;;5034428;28;20077;-82
2020/12/15 10:22:52;;;;;;;29.25;18.70;;;7.50;99.90;;;;;;5028365;28;20055;-82
2020/12/15 10:25:19;;;;;;;37.83;23.30;;;7.50;99.90;;;;;;5029090;28;20032;-81
2020/12/15 10:27:47;;;;;;;36.92;23.42;;;7.50;99.90;;;;;;5028705;28;20604;-81
2020/12/15 10:30:14;;;;;;;28.13;19.17;;;7.50;99.90;;;;;;4681553;28;10000195;-81
2020/12/15 10:32:40;;;;;;;32.15;21.25;;;7.50;99.90;;;;;;5032483;28;20036;-82
2020/12/15 10:35:08;;;;;;;39.45;22.83;;;7.40;99.90;;;;;;5032750;28;20052;-82
2020/12/15 10:37:35;;;;;;;32.53;20.98;;;7.50;99.90;;;;;;5031624;28;20048;-81
2020/12/15 10:40:06;;;;;;;33.00;21.42;;;7.50;99.90;;;;;;5030369;28;20044;-82
2020/12/15 10:42:36;;;;;;;34.08;21.65;;;7.50;99.90;;;;;;5033584;28;21744;-82
2020/12/15 10:45:06;;;;;;;35.00;22.05;;;7.50;99.90;;;;;;5030602;28;20488;-82
2020/12/15 10:47:32;;;;;;;32.38;21.23;;;7.50;99.90;;;;;;5030518;28;20475;-81
2020/12/15 10:49:58;;;;;;;33.90;22.85;;;7.50;99.90;;;;;;5032048;28;20083;-82
2020/12/15 10:52:24;;;;;;;34.88;22.75;;;7.60;99.90;;;;;;5031730;28;20029;-82
2020/12/15 10:54:50;;;;;;;35.10;22.55;;;7.60;99.90;;;;;;5027942;28;20025;-82
2020/12/15 10:57:16;;;;;;;34.28;22.58;;;7.60;99.90;;;;;;5034305;28;20052;-81
2020/12/15 10:59:45;;;;;;;32.05;21.52;;;7.60;99.90;;;;;;5029761;28;20030;-82
2020/12/15 11:02:12;;;;;;;38.33;23.95;;;7.70;99.90;;;;;;5032011;28;20025;-82
2020/12/15 11:04:38;;;;;;;35.35;22.58;;;7.70;99.90;;;;;;5031163;28;20030;-82
2020/12/15 11:07:12;;;;;;;39.58;24.45;;;7.70;99.90;;;;;;5027844;28;20037;-82
2020/12/15 11:09:38;;;;;;;35.67;23.15;;;7.70;99.90;;;;;;5031273;28;20024;-82
2020/12/15 11:12:04;;;;;;;34.92;22.80;;;7.70;99.90;;;;;;5030817;28;20029;-80
2020/12/15 11:14:30;;;;;;;32.40;21.90;;;7.70;99.90;;;;;;5032918;28;20029;-80
2020/12/15 11:17:02;;;;;;;30.90;20.67;;;7.80;99.90;;;;;;5030266;28;20112;-80
2020/12/15 11:19:27;;;;;;;36.40;22.83;;;7.80;99.90;;;;;;5028423;28;20100;-80
2020/12/15 11:21:53;;;;;;;32.22;21.70;;;7.80;99.90;;;;;;5028152;28;20021;-80
2020/12/15 11:24:19;;;;;;;44.65;26.42;;;7.80;99.90;;;;;;5031918;28;20033;-79
2020/12/15 11:26:47;;;;;;;34.90;22.92;;;7.90;99.90;;;;;;5025526;28;20018;-80
2020/12/15 11:29:15;;;;;;;36.40;23.80;;;7.90;99.90;;;;;;5032835;28;20059;-80
2020/12/15 11:31:43;;;;;;;33.92;22.17;;;7.90;99.90;;;;;;5030690;28;20025;-79
2020/12/15 11:34:11;;;;;;;30.27;20.63;;;7.90;99.90;;;;;;5029460;28;20037;-80
2020/12/15 11:36:37;;;;;;;31.17;20.38;;;8.00;99.90;;;;;;5030787;28;20025;-80
2020/12/15 11:39:03;;;;;;;30.17;20.60;;;8.00;99.90;;;;;;5031398;28;20155;-80
2020/12/15 11:41:31;;;;;;;30.60;20.27;;;8.00;99.90;;;;;;5031254;28;20029;-79
2020/12/15 11:43:59;;;;;;;27.20;18.95;;;8.00;99.90;;;;;;5024434;28;20496;-80
2020/12/15 11:46:25;;;;;;;26.52;18.83;;;8.10;99.90;;;;;;5033369;28;20029;-80
2020/12/15 11:48:51;;;;;;;25.50;17.98;;;8.10;99.90;;;;;;5032759;28;20061;-79
2020/12/15 11:51:20;;;;;;;24.25;17.25;;;8.10;99.90;;;;;;5029971;28;20060;-80
2020/12/15 11:53:48;;;;;;;24.17;16.80;;;8.10;99.90;;;;;;5029664;28;20111;-80
2020/12/15 11:56:18;;;;;;;23.33;16.48;;;8.10;99.90;;;;;;5029284;28;20037;-80
2020/12/15 11:58:44;;;;;;;22.08;15.75;;;8.10;99.90;;;;;;5030089;28;20056;-80
2020/12/15 12:01:12;;;;;;;20.95;16.33;;;8.10;99.90;;;;;;5030308;28;20103;-82
2020/12/15 12:03:38;;;;;;;21.40;15.55;;;8.20;99.90;;;;;;5034156;28;20017;-80
2020/12/15 12:06:04;;;;;;;24.98;17.05;;;8.20;99.90;;;;;;5024052;28;20028;-80
2020/12/15 12:08:32;;;;;;;19.67;14.35;;;8.20;99.90;;;;;;5029644;28;20021;-80
2020/12/15 12:10:58;;;;;;;21.65;14.48;;;8.30;99.90;;;;;;5029725;28;20028;-80
2020/12/15 12:13:26;;;;;;;21.52;15.82;;;8.20;99.90;;;;;;5016377;28;20047;-80
2020/12/15 12:15:52;;;;;;;21.88;14.80;;;8.20;99.90;;;;;;5027617;28;20048;-80
2020/12/15 12:18:20;;;;;;;18.55;13.68;;;8.30;99.90;;;;;;5029865;28;20066;-80
2020/12/15 12:20:46;;;;;;;18.35;13.60;;;8.20;99.90;;;;;;5027432;28;20079;-80
2020/12/15 12:23:14;;;;;;;21.35;14.98;;;8.20;99.90;;;;;;5028281;28;20030;-80
2020/12/15 12:25:42;;;;;;;19.77;13.98;;;8.20;99.90;;;;;;5028261;28;20082;-80
2020/12/15 12:28:10;;;;;;;21.08;13.98;;;8.20;99.90;;;;;;5032147;28;20073;-79
2020/12/15 12:30:38;;;;;;;18.35;13.32;;;8.20;99.90;;;;;;5033418;28;20036;-80
2020/12/15 12:33:04;;;;;;;19.52;14.13;;;8.20;99.90;;;;;;5020771;28;20033;-80
2020/12/15 12:35:32;;;;;;;17.58;13.15;;;8.30;99.90;;;;;;5022972;28;20078;-79
2020/12/15 12:38:00;;;;;;;18.35;14.07;;;8.30;99.90;;;;;;5028354;28;20029;-79
2020/12/15 12:40:26;;;;;;;18.08;13.30;;;8.30;99.90;;;;;;5027216;28;20033;-79
2020/12/15 12:42:59;;;;;;;21.10;13.77;;;8.30;99.90;;;;;;5016806;28;20079;-79
2020/12/15 12:45:24;;;;;;;19.52;13.40;;;8.30;99.90;;;;;;5027939;28;20034;-80